Time;durP1;ratioP1;P1;durP2;ratioP2;P2;SDS_P1;SDS_P2;PMS_P1;PMS_P2;Temp;Humidity;BMP_temperature;BMP_pressure;BME280_temperature;BME280_humidity;BME280_pressure;Samples;Min_cycle;Max_cycle;Signal;HPM_P1;HPM_P2
2024/01/02 00:01:51;;;;;;;8.00;2.75;;;6.40;99.90;;;;;;6300881;22;20094;-78
2024/01/02 00:04:17;;;;;;;7.80;3.15;;;6.40;99.90;;;;;;6300763;22;20027;-79
2024/01/02 00:06:42;;;;;;;7.10;3.05;;;6.50;99.90;;;;;;6275337;22;20041;-79
2024/01/02 00:09:08;;;;;;;11.18;3.25;;;6.40;99.90;;;;;;6301250;22;20090;-79
2024/01/02 00:11:34;;;;;;;6.05;2.92;;;6.40;99.90;;;;;;6300903;22;20095;-79
2024/01/02 00:14:00;;;;;;;11.05;3.40;;;6.40;99.90;;;;;;6302703;22;20025;-79
2024/01/02 00:16:25;;;;;;;8.23;2.58;;;6.40;99.90;;;;;;6302939;22;20003;-79
2024/01/02 00:18:51;;;;;;;7.15;2.53;;;6.40;99.90;;;;;;6301031;22;20358;-80
2024/01/02 00:21:17;;;;;;;5.75;2.35;;;6.40;99.90;;;;;;6301138;22;20092;-80
2024/01/02 00:23:43;;;;;;;9.15;2.42;;;6.40;99.90;;;;;;6301055;22;20021;-79
2024/01/02 00:26:08;;;;;;;5.82;2.33;;;6.40;99.90;;;;;;6301056;22;20074;-79
2024/01/02 00:28:34;;;;;;;10.52;2.30;;;6.50;99.90;;;;;;6300704;22;20022;-79
2024/01/02 00:30:59;;;;;;;8.15;1.70;;;6.40;99.90;;;;;;6301019;22;20435;-78
2024/01/02 00:33:25;;;;;;;5.13;1.95;;;6.50;99.90;;;;;;6300872;22;20023;-78
2024/01/02 00:35:51;;;;;;;8.75;2.08;;;6.50;99.90;;;;;;6275250;22;20015;-78
2024/01/02 00:38:17;;;;;;;4.80;1.65;;;6.50;99.90;;;;;;6300976;22;20015;-78
2024/01/02 00:40:43;;;;;;;4.40;2.15;;;6.40;99.90;;;;;;6275197;22;20027;-77
2024/01/02 00:43:09;;;;;;;7.40;2.40;;;6.40;99.90;;;;;;6300631;22;20023;-77
2024/01/02 00:45:35;;;;;;;9.68;2.60;;;6.40;99.90;;;;;;6300824;22;20030;-77
2024/01/02 00:48:00;;;;;;;9.38;2.08;;;6.40;99.90;;;;;;6274910;22;20060;-77
2024/01/02 00:50:26;;;;;;;10.63;2.60;;;6.40;99.90;;;;;;6300677;22;20019;-77
2024/01/02 00:52:52;;;;;;;9.90;2.78;;;6.40;99.90;;;;;;6300702;22;20138;-77
2024/01/02 00:55:17;;;;;;;7.70;2.25;;;6.40;99.90;;;;;;6300622;22;20068;-76
2024/01/02 00:57:43;;;;;;;11.93;3.95;;;6.50;99.90;;;;;;6300747;22;20061;-77
2024/01/02 01:00:10;;;;;;;12.02;2.33;;;6.50;99.90;;;;;;6300788;22;20509;-77
2024/01/02 01:02:36;;;;;;;10.27;2.35;;;6.50;99.90;;;;;;6302412;22;20012;-77
2024/01/02 01:05:01;;;;;;;13.07;2.83;;;6.40;99.90;;;;;;6302366;22;20193;-76
2024/01/02 01:07:27;;;;;;;11.63;2.40;;;6.50;99.90;;;;;;6300832;22;20081;-76
2024/01/02 01:09:53;;;;;;;6.28;2.70;;;6.50;99.90;;;;;;6300704;22;20149;-76
2024/01/02 01:12:18;;;;;;;12.70;4.22;;;6.50;99.90;;;;;;6300406;22;20489;-76
2024/01/02 01:14:44;;;;;;;17.42;2.28;;;6.50;99.90;;;;;;6300636;22;20264;-76
2024/01/02 01:17:10;;;;;;;10.23;2.88;;;6.60;99.90;;;;;;6300474;22;20021;-75
2024/01/02 01:19:36;;;;;;;5.03;2.55;;;6.50;99.90;;;;;;6300742;22;20086;-75
2024/01/02 01:22:01;;;;;;;15.93;4.25;;;6.50;99.90;;;;;;6300209;22;20011;-76
2024/01/02 01:24:27;;;;;;;11.88;2.95;;;6.50;99.90;;;;;;6300432;22;20090;-75
2024/01/02 01:26:53;;;;;;;12.75;3.40;;;6.50;99.90;;;;;;6300346;22;20223;-75
2024/01/02 01:29:24;;;;;;;8.77;2.92;;;6.60;99.90;;;;;;6302611;22;20019;-75
2024/01/02 01:31:50;;;;;;;6.90;2.95;;;6.60;99.90;;;;;;6300321;22;20053;-74
2024/01/02 01:34:16;;;;;;;13.45;2.83;;;6.60;99.90;;;;;;6300336;22;20011;-74
2024/01/02 01:36:42;;;;;;;13.18;3.72;;;6.50;99.90;;;;;;6300448;22;20181;-74
2024/01/02 01:39:07;;;;;;;8.80;2.83;;;6.60;99.90;;;;;;6302606;22;20043;-75
2024/01/02 01:41:33;;;;;;;12.45;2.90;;;6.60;99.90;;;;;;6302056;22;20159;-74
2024/01/02 01:43:59;;;;;;;13.98;3.28;;;6.50;99.90;;;;;;6300791;22;20034;-74
2024/01/02 01:46:36;;;;;;;13.32;3.45;;;6.50;99.90;;;;;;6300805;22;20046;-74
2024/01/02 01:49:03;;;;;;;11.73;3.70;;;6.60;99.90;;;;;;6301119;22;20007;-74
2024/01/02 01:51:29;;;;;;;10.43;3.03;;;6.50;99.90;;;;;;6300664;22;20035;-74
2024/01/02 01:54:00;;;;;;;6.82;3.45;;;6.50;99.90;;;;;;6300412;22;20112;-74
2024/01/02 01:56:26;;;;;;;13.13;3.80;;;6.50;99.90;;;;;;6302704;22;20003;-75
2024/01/02 01:58:51;;;;;;;11.55;3.55;;;6.50;99.90;;;;;;6274732;22;20042;-74
2024/01/02 02:01:17;;;;;;;11.82;3.53;;;6.50;99.90;;;;;;6300378;22;20011;-74
2024/01/02 02:03:44;;;;;;;11.80;4.32;;;6.50;99.90;;;;;;6302025;22;20132;-75
2024/01/02 02:06:10;;;;;;;11.73;4.20;;;6.50;99.90;;;;;;6300196;22;20108;-74
2024/01/02 02:08:36;;;;;;;12.70;3.42;;;6.60;99.90;;;;;;6301838;22;20019;-75
2024/01/02 02:11:03;;;;;;;13.20;4.05;;;6.60;99.90;;;;;;6300473;22;20094;-75
2024/01/02 02:13:29;;;;;;;16.38;4.05;;;6.60;99.90;;;;;;6300477;22;20019;-75
2024/01/02 02:15:54;;;;;;;12.43;3.78;;;6.60;99.90;;;;;;6300589;22;20315;-74
2024/01/02 02:18:20;;;;;;;9.32;3.85;;;6.60;99.90;;;;;;6300618;22;20015;-75
2024/01/02 02:20:45;;;;;;;9.85;3.80;;;6.60;99.90;;;;;;6301725;22;20024;-74
2024/01/02 02:23:11;;;;;;;12.30;5.13;;;6.60;99.90;;;;;;6299954;22;20023;-75
2024/01/02 02:25:37;;;;;;;16.73;4.18;;;6.70;99.90;;;;;;6300202;22;20026;-74
2024/01/02 02:28:03;;;;;;;15.98;5.15;;;6.60;99.90;;;;;;6300287;22;20117;-74
2024/01/02 02:30:29;;;;;;;14.32;4.68;;;6.60;99.90;;;;;;6274261;22;20462;-74
2024/01/02 02:32:55;;;;;;;12.40;3.65;;;6.60;99.90;;;;;;6300574;22;20026;-75
2024/01/02 02:35:20;;;;;;;10.68;3.55;;;6.70;99.90;;;;;;6300214;22;20030;-74
2024/01/02 02:37:46;;;;;;;10.80;3.67;;;6.60;99.90;;;;;;6299710;22;20013;-75
2024/01/02 02:40:12;;;;;;;8.98;4.07;;;6.70;99.90;;;;;;6300193;22;20015;-75
2024/01/02 02:42:38;;;;;;;16.73;3.95;;;6.70;99.90;;;;;;6300116;22;20339;-74
2024/01/02 02:45:05;;;;;;;12.48;4.03;;;6.70;99.90;;;;;;6302142;22;20023;-74
2024/01/02 02:47:30;;;;;;;13.13;4.07;;;6.70;99.90;;;;;;6302110;22;20014;-74
2024/01/02 02:49:56;;;;;;;11.95;4.63;;;6.70;99.90;;;;;;6301994;22;20054;-74
2024/01/02 02:52:23;;;;;;;15.93;3.85;;;6.70;99.90;;;;;;6275910;22;20427;-74
2024/01/02 02:54:48;;;;;;;12.18;4.03;;;6.70;99.90;;;;;;6302130;22;20017;-74
2024/01/02 02:57:14;;;;;;;10.05;3.60;;;6.70;99.90;;;;;;6302624;22;20019;-74
2024/01/02 02:59:40;;;;;;;12.80;3.85;;;6.70;99.90;;;;;;6302791;22;20019;-74
2024/01/02 03:02:05;;;;;;;9.73;3.75;;;6.70;99.90;;;;;;6302205;22;20017;-74
2024/01/02 03:04:31;;;;;;;13.02;4.28;;;6.70;99.90;;;;;;6301718;22;20023;-74
2024/01/02 03:06:57;;;;;;;12.63;4.05;;;6.60;99.90;;;;;;6301485;22;20094;-74
2024/01/02 03:09:22;;;;;;;13.13;4.20;;;6.70;99.90;;;;;;6301695;22;20100;-74
2024/01/02 03:11:48;;;;;;;9.80;3.58;;;6.70;99.90;;;;;;6275861;22;20354;-74
2024/01/02 03:14:14;;;;;;;9.60;3.65;;;6.60;99.90;;;;;;6301457;22;20026;-74
2024/01/02 03:16:42;;;;;;;12.45;3.92;;;6.70;99.90;;;;;;6301859;22;20316;-74
2024/01/02 03:19:08;;;;;;;14.93;3.75;;;6.70;99.90;;;;;;6301668;22;20082;-74
2024/01/02 03:21:33;;;;;;;9.20;3.53;;;6.60;99.90;;;;;;6301413;22;20081;-74
2024/01/02 03:24:02;;;;;;;7.03;2.95;;;6.60;99.90;;;;;;6301842;22;20019;-74
2024/01/02 03:26:28;;;;;;;9.20;3.20;;;6.60;99.90;;;;;;6301785;22;20015;-74
2024/01/02 03:28:53;;;;;;;9.45;3.42;;;6.60;99.90;;;;;;6301599;22;20286;-74
2024/01/02 03:31:19;;;;;;;8.90;3.75;;;6.60;99.90;;;;;;6303257;22;20065;-74
2024/01/02 03:33:44;;;;;;;7.00;3.13;;;6.70;99.90;;;;;;6301417;22;20014;-74
2024/01/02 03:36:20;;;;;;;7.78;3.10;;;6.60;99.90;;;;;;6301078;22;20018;-74
2024/01/02 03:38:50;;;;;;;9.93;3.40;;;6.60;99.90;;;;;;6301092;22;20023;-74
2024/01/02 03:41:16;;;;;;;13.70;3.40;;;6.60;99.90;;;;;;6301308;22;20034;-74
2024/01/02 03:43:42;;;;;;;7.22;3.50;;;6.70;99.90;;;;;;6301291;22;20038;-74
2024/01/02 03:46:08;;;;;;;7.93;3.10;;;6.60;99.90;;;;;;6301238;22;20018;-73
2024/01/02 03:48:34;;;;;;;7.30;3.17;;;6.70;99.90;;;;;;6301182;22;20069;-74
2024/01/02 03:51:03;;;;;;;8.68;3.28;;;6.70;99.90;;;;;;6302679;22;20340;-74
2024/01/02 03:53:29;;;;;;;7.70;3.28;;;6.70;99.90;;;;;;6300809;22;20103;-74
2024/01/02 03:55:58;;;;;;;7.47;3.28;;;6.70;99.90;;;;;;6275348;22;20110;-74
2024/01/02 03:58:24;;;;;;;5.78;3.03;;;6.70;99.90;;;;;;6303299;22;20058;-74
2024/01/02 04:00:54;;;;;;;9.05;3.17;;;6.70;99.90;;;;;;6301097;22;20098;-74
2024/01/02 04:03:20;;;;;;;10.63;3.78;;;6.70;99.90;;;;;;6300786;22;20019;-74
2024/01/02 04:05:46;;;;;;;6.85;2.72;;;6.70;99.90;;;;;;6300724;22;20054;-74
2024/01/02 04:08:12;;;;;;;9.68;3.22;;;6.70;99.90;;;;;;6301082;22;20074;-73
2024/01/02 04:10:39;;;;;;;5.78;2.47;;;6.70;99.90;;;;;;6300956;22;20011;-73
2024/01/02 04:13:09;;;;;;;3.83;2.25;;;6.70;99.90;;;;;;6301019;22;20038;-73
2024/01/02 04:15:35;;;;;;;6.10;2.72;;;6.70;99.90;;;;;;6275072;22;20325;-72
2024/01/02 04:18:01;;;;;;;6.22;2.40;;;6.60;99.90;;;;;;6302798;22;20011;-73
2024/01/02 04:20:27;;;;;;;5.35;2.33;;;6.70;99.90;;;;;;6300661;22;20022;-72
2024/01/02 04:22:54;;;;;;;5.63;2.22;;;6.70;99.90;;;;;;6300607;22;20114;-72
2024/01/02 04:25:26;;;;;;;5.13;2.15;;;6.70;99.90;;;;;;6300856;22;20021;-72
2024/01/02 04:27:54;;;;;;;6.00;2.38;;;6.80;99.90;;;;;;6300837;22;20110;-72
2024/01/02 04:30:20;;;;;;;12.48;2.42;;;6.70;99.90;;;;;;6300611;22;20026;-72
2024/01/02 04:32:46;;;;;;;6.20;2.45;;;6.80;99.90;;;;;;6300803;22;20023;-72
2024/01/02 04:35:12;;;;;;;3.75;1.70;;;6.60;99.90;;;;;;6302178;22;20038;-72
2024/01/02 04:37:37;;;;;;;4.07;2.30;;;6.70;99.90;;;;;;6301143;22;20126;-72
2024/01/02 04:40:07;;;;;;;2.90;1.90;;;6.70;99.90;;;;;;6303244;22;20011;-71
2024/01/02 04:42:35;;;;;;;5.72;2.17;;;6.70;99.90;;;;;;6301147;22;20023;-72
2024/01/02 04:45:04;;;;;;;5.28;1.60;;;6.80;99.90;;;;;;6302926;22;20189;-72
2024/01/02 04:47:30;;;;;;;3.42;1.70;;;6.70;99.90;;;;;;6300825;22;20080;-71
2024/01/02 04:49:56;;;;;;;4.30;1.85;;;6.70;99.90;;;;;;6300236;22;20015;-72
2024/01/02 04:52:22;;;;;;;3.83;1.98;;;6.70;99.90;;;;;;6300367;22;20019;-71
2024/01/02 04:54:48;;;;;;;3.63;1.90;;;6.80;99.90;;;;;;6300265;22;20451;-71
2024/01/02 04:57:15;;;;;;;3.72;1.90;;;6.80;99.90;;;;;;6300503;22;20022;-71
2024/01/02 04:59:41;;;;;;;7.78;1.70;;;6.70;99.90;;;;;;6300627;22;20066;-71
2024/01/02 05:02:07;;;;;;;2.55;1.90;;;6.80;99.90;;;;;;6300438;22;20034;-71
2024/01/02 05:04:33;;;;;;;1.50;1.40;;;6.70;99.90;;;;;;6274019;22;20027;-71
2024/01/02 05:06:59;;;;;;;1.75;1.63;;;6.70;99.90;;;;;;6300083;22;20023;-71
2024/01/02 05:09:26;;;;;;;2.75;1.90;;;6.70;99.90;;;;;;6300085;22;20026;-71
2024/01/02 05:11:52;;;;;;;2.05;1.50;;;6.80;99.90;;;;;;6274437;22;20125;-71
2024/01/02 05:14:18;;;;;;;2.38;1.90;;;6.80;99.90;;;;;;6302189;22;20487;-71
2024/01/02 05:16:43;;;;;;;2.45;1.80;;;6.80;99.90;;;;;;6299979;22;20026;-72
2024/01/02 05:19:09;;;;;;;2.90;1.58;;;6.80;99.90;;;;;;6300231;22;20444;-72
2024/01/02 05:21:35;;;;;;;4.75;2.00;;;6.80;99.90;;;;;;6299681;22;20022;-72
2024/01/02 05:24:01;;;;;;;2.45;2.22;;;6.70;99.90;;;;;;6300066;22;20132;-73
2024/01/02 05:26:27;;;;;;;3.38;1.67;;;6.80;99.90;;;;;;6300200;22;20016;-72
2024/01/02 05:28:53;;;;;;;3.25;2.13;;;6.70;99.90;;;;;;6301896;22;20011;-73
2024/01/02 05:31:18;;;;;;;3.80;1.80;;;6.70;99.90;;;;;;6299883;22;20026;-72
2024/01/02 05:33:44;;;;;;;3.97;2.00;;;6.80;99.90;;;;;;6300154;22;20027;-73
2024/01/02 05:36:10;;;;;;;3.53;1.90;;;6.80;99.90;;;;;;6300003;22;20004;-73
2024/01/02 05:38:35;;;;;;;3.78;1.98;;;6.70;99.90;;;;;;6299686;22;20057;-73
2024/01/02 05:41:01;;;;;;;2.97;1.90;;;6.70;99.90;;;;;;6300326;22;20427;-72
2024/01/02 05:43:27;;;;;;;2.33;1.70;;;6.70;99.90;;;;;;6301661;22;20018;-73
2024/01/02 05:45:52;;;;;;;3.72;1.80;;;6.70;99.90;;;;;;6301614;22;20050;-72
2024/01/02 05:48:18;;;;;;;3.63;1.75;;;6.70;99.90;;;;;;6299898;22;20024;-73
2024/01/02 05:50:44;;;;;;;2.55;1.83;;;6.70;99.90;;;;;;6299689;22;20448;-72
2024/01/02 05:53:09;;;;;;;2.83;1.90;;;6.70;99.90;;;;;;6274050;22;20026;-72
2024/01/02 05:55:36;;;;;;;3.60;1.83;;;6.70;99.90;;;;;;6301856;22;20068;-73
2024/01/02 05:58:01;;;;;;;2.47;1.80;;;6.70;99.90;;;;;;6300090;22;20011;-73
2024/01/02 06:00:27;;;;;;;2.08;1.90;;;6.80;99.90;;;;;;6301402;22;20049;-73
2024/01/02 06:02:53;;;;;;;3.10;1.80;;;6.80;99.90;;;;;;6299646;22;20026;-73
2024/01/02 06:05:19;;;;;;;1.75;1.60;;;6.80;99.90;;;;;;6300102;22;20023;-74
2024/01/02 06:07:44;;;;;;;1.80;1.70;;;6.80;99.90;;;;;;6299730;22;20076;-74
2024/01/02 06:10:11;;;;;;;1.58;1.48;;;6.80;99.90;;;;;;6301774;22;20035;-73
2024/01/02 06:12:37;;;;;;;1.33;1.23;;;6.80;99.90;;;;;;6299763;22;20094;-74
2024/01/02 06:15:03;;;;;;;2.78;1.63;;;6.90;99.90;;;;;;6299853;22;20463;-74
2024/01/02 06:17:28;;;;;;;1.83;1.48;;;6.90;99.90;;;;;;6299827;22;20469;-74
2024/01/02 06:19:54;;;;;;;1.10;1.00;;;7.00;99.90;;;;;;6299987;22;20090;-74
2024/01/02 06:22:20;;;;;;;2.00;1.80;;;7.00;99.90;;;;;;6299959;22;20015;-74
2024/01/02 06:24:46;;;;;;;1.63;1.52;;;7.00;99.90;;;;;;6299942;22;20463;-73
2024/01/02 06:27:11;;;;;;;1.80;1.60;;;7.00;99.90;;;;;;6274247;22;20026;-73
2024/01/02 06:29:37;;;;;;;1.65;1.55;;;7.00;99.90;;;;;;6300188;22;20015;-72
2024/01/02 06:32:03;;;;;;;1.30;1.20;;;7.00;99.90;;;;;;6302567;22;20015;-73
2024/01/02 06:34:29;;;;;;;1.30;1.20;;;7.00;99.90;;;;;;6300077;22;20018;-73
2024/01/02 06:36:55;;;;;;;1.30;1.20;;;7.00;99.90;;;;;;6302165;22;20078;-73
2024/01/02 06:39:20;;;;;;;1.48;1.30;;;7.10;99.90;;;;;;6302051;22;20015;-73
2024/01/02 06:41:46;;;;;;;1.40;1.30;;;7.10;99.90;;;;;;6302325;22;20455;-73
2024/01/02 06:44:13;;;;;;;1.10;1.10;;;7.20;99.90;;;;;;6299815;22;20054;-73
2024/01/02 06:46:38;;;;;;;1.60;1.48;;;7.20;99.90;;;;;;6274275;22;20354;-72
2024/01/02 06:49:04;;;;;;;1.30;1.30;;;7.20;99.90;;;;;;6299678;22;20057;-72
2024/01/02 06:51:30;;;;;;;1.50;1.50;;;7.30;99.90;;;;;;6301178;22;20114;-72
2024/01/02 06:53:56;;;;;;;1.70;1.60;;;7.30;99.90;;;;;;6299364;22;20023;-73
2024/01/02 06:56:21;;;;;;;1.48;1.48;;;7.30;99.90;;;;;;6299514;22;20014;-73
2024/01/02 06:58:47;;;;;;;1.70;1.60;;;7.30;99.90;;;;;;6299452;22;20076;-73
2024/01/02 07:01:17;;;;;;;1.80;1.70;;;7.30;99.90;;;;;;6301297;22;20099;-73
2024/01/02 07:03:43;;;;;;;1.90;1.80;;;7.30;99.90;;;;;;6299567;22;20015;-73
2024/01/02 07:06:09;;;;;;;2.15;1.92;;;7.40;99.90;;;;;;6299753;22;20027;-73
2024/01/02 07:08:35;;;;;;;1.70;1.70;;;7.50;99.90;;;;;;6301657;22;20054;-74
2024/01/02 07:11:01;;;;;;;1.58;1.58;;;7.50;99.90;;;;;;6300360;22;20156;-73
2024/01/02 07:13:27;;;;;;;3.30;1.90;;;7.50;99.90;;;;;;6300111;22;20043;-73
2024/01/02 07:15:52;;;;;;;2.00;1.90;;;7.50;99.90;;;;;;6300044;22;20007;-73
2024/01/02 07:18:18;;;;;;;2.88;2.25;;;7.50;99.90;;;;;;6274437;22;20023;-74
2024/01/02 07:20:43;;;;;;;2.97;2.78;;;7.60;99.90;;;;;;6301816;22;20403;-73
2024/01/02 07:23:09;;;;;;;2.42;2.33;;;7.60;99.90;;;;;;6300286;22;20030;-74
2024/01/02 07:25:35;;;;;;;3.00;2.80;;;7.60;99.90;;;;;;6299958;22;20015;-74
2024/01/02 07:28:00;;;;;;;2.65;2.45;;;7.60;99.90;;;;;;6273784;22;20019;-73
2024/01/02 07:30:26;;;;;;;3.00;2.40;;;7.70;99.90;;;;;;6301324;22;20065;-74
2024/01/02 07:32:52;;;;;;;2.80;2.60;;;7.70;99.90;;;;;;6301589;22;20022;-74
2024/01/02 07:35:18;;;;;;;2.65;2.47;;;7.70;99.90;;;;;;6301328;22;20022;-74
2024/01/02 07:37:43;;;;;;;2.75;2.50;;;7.80;99.90;;;;;;6301387;22;20015;-74
2024/01/02 07:40:10;;;;;;;2.67;2.47;;;7.80;99.90;;;;;;6301499;22;20015;-75
2024/01/02 07:42:35;;;;;;;2.88;2.67;;;7.80;99.90;;;;;;6300886;22;20026;-74
2024/01/02 07:45:01;;;;;;;3.28;2.40;;;7.90;99.90;;;;;;6301382;22;20016;-74
2024/01/02 07:47:27;;;;;;;2.50;2.40;;;7.90;99.90;;;;;;6301139;22;20018;-73
2024/01/02 07:49:53;;;;;;;2.05;1.95;;;7.90;99.90;;;;;;6301282;22;20093;-73
2024/01/02 07:52:19;;;;;;;2.22;2.13;;;8.00;99.90;;;;;;6302874;22;20050;-73
2024/01/02 07:54:44;;;;;;;2.60;2.40;;;8.00;99.90;;;;;;6301123;22;20393;-73
2024/01/02 07:57:10;;;;;;;2.50;2.17;;;8.10;99.90;;;;;;6300712;22;20026;-74
2024/01/02 07:59:36;;;;;;;2.00;1.90;;;8.10;99.90;;;;;;6301373;22;20019;-75
2024/01/02 08:02:02;;;;;;;2.50;2.30;;;8.10;99.90;;;;;;6301288;22;20046;-75
2024/01/02 08:04:29;;;;;;;3.58;2.53;;;8.20;99.90;;;;;;6300999;22;20026;-75
2024/01/02 08:06:57;;;;;;;4.53;2.22;;;8.20;99.90;;;;;;6301272;22;20023;-75
2024/01/02 08:09:24;;;;;;;3.08;2.03;;;8.30;99.90;;;;;;6303715;22;20015;-74
2024/01/02 08:11:50;;;;;;;2.60;2.40;;;8.30;99.90;;;;;;6301314;22;20019;-73
2024/01/02 08:14:16;;;;;;;3.10;2.80;;;8.30;99.90;;;;;;6301180;22;20019;-74
2024/01/02 08:16:41;;;;;;;3.28;2.67;;;8.40;99.90;;;;;;6301038;22;20077;-74
2024/01/02 08:19:07;;;;;;;5.22;3.45;;;8.40;99.90;;;;;;6303256;22;20014;-74
2024/01/02 08:21:34;;;;;;;4.43;3.40;;;8.40;99.90;;;;;;6300681;22;20022;-76
2024/01/02 08:24:00;;;;;;;4.18;3.13;;;8.50;99.90;;;;;;6302943;22;20058;-75
2024/01/02 08:26:25;;;;;;;5.57;2.80;;;8.50;99.90;;;;;;6302654;22;20015;-77
2024/01/02 08:28:51;;;;;;;5.40;3.60;;;8.60;99.90;;;;;;6302714;22;20471;-77
2024/01/02 08:31:17;;;;;;;3.75;3.45;;;8.60;99.90;;;;;;6274636;22;20097;-77
2024/01/02 08:33:45;;;;;;;6.03;3.28;;;8.70;99.90;;;;;;6300833;22;20026;-76
2024/01/02 08:36:11;;;;;;;4.93;3.05;;;8.70;99.90;;;;;;6275555;22;20015;-77
2024/01/02 08:38:37;;;;;;;8.65;3.85;;;8.80;99.90;;;;;;6301024;22;20011;-77
2024/01/02 08:41:04;;;;;;;4.68;3.42;;;8.80;99.90;;;;;;6300028;22;20652;-74
2024/01/02 08:43:29;;;;;;;9.98;4.22;;;8.90;99.90;;;;;;6300887;22;20027;-74
2024/01/02 08:45:55;;;;;;;8.35;3.80;;;8.90;99.90;;;;;;6300719;22;20023;-77
2024/01/02 08:48:21;;;;;;;10.57;3.95;;;8.90;99.90;;;;;;6301332;22;20434;-78
2024/01/02 08:50:47;;;;;;;8.38;4.10;;;9.00;99.90;;;;;;6301326;22;20015;-77
2024/01/02 08:53:13;;;;;;;6.00;3.58;;;9.10;99.90;;;;;;6275320;22;20015;-78
2024/01/02 08:55:39;;;;;;;10.50;3.40;;;9.20;99.90;;;;;;6274538;22;20015;-78
2024/01/02 08:58:05;;;;;;;12.27;4.38;;;9.20;99.90;;;;;;6300672;22;20396;-78
2024/01/02 09:00:31;;;;;;;9.73;3.10;;;9.20;99.90;;;;;;6300220;22;20022;-79
2024/01/02 09:03:08;;;;;;;8.23;3.70;;;9.30;99.90;;;;;;6302254;22;20015;-79
2024/01/02 09:05:34;;;;;;;16.65;3.72;;;9.30;99.90;;;;;;6300153;22;20027;-78
2024/01/02 09:08:00;;;;;;;9.68;3.10;;;9.40;99.90;;;;;;6300495;22;20084;-81
2024/01/02 09:10:25;;;;;;;14.90;3.17;;;9.40;99.90;;;;;;6300443;22;20390;-78
2024/01/02 09:12:51;;;;;;;13.88;3.92;;;9.40;99.90;;;;;;6300665;22;20027;-79
2024/01/02 09:15:17;;;;;;;17.60;3.55;;;9.50;99.90;;;;;;6300654;22;20347;-79
2024/01/02 09:17:43;;;;;;;12.98;2.78;;;9.60;99.90;;;;;;6275016;22;20015;-79
2024/01/02 09:20:11;;;;;;;11.95;2.40;;;9.60;99.90;;;;;;6300948;22;20026;-79
2024/01/02 09:22:37;;;;;;;6.18;2.40;;;9.60;99.90;;;;;;6300119;22;20023;-79
2024/01/02 09:25:04;;;;;;;10.80;2.78;;;9.60;99.90;;;;;;6273043;22;20230;-79
2024/01/02 09:27:31;;;;;;;20.05;3.35;;;9.70;99.90;;;;;;6300341;22;20106;-80
2024/01/02 09:29:58;;;;;;;13.75;2.80;;;9.70;99.90;;;;;;6274831;22;20376;-80
2024/01/02 09:32:25;;;;;;;12.48;2.55;;;9.70;99.90;;;;;;6302147;22;20027;-81
2024/01/02 09:34:52;;;;;;;10.60;2.53;;;9.80;99.90;;;;;;6302447;22;20011;-80
2024/01/02 09:37:18;;;;;;;12.35;3.97;;;9.80;99.90;;;;;;6300530;22;20050;-80
2024/01/02 09:39:46;;;;;;;11.85;2.58;;;9.80;99.90;;;;;;6299913;22;20160;-77
2024/01/02 09:42:17;;;;;;;11.10;3.13;;;9.80;99.90;;;;;;6300469;22;20022;-82
2024/01/02 09:44:51;;;;;;;18.10;3.33;;;9.90;99.90;;;;;;6302705;22;20018;-79
2024/01/02 09:47:26;;;;;;;16.67;3.10;;;9.90;99.90;;;;;;6300845;22;20058;-82
2024/01/02 09:49:58;;;;;;;13.50;3.05;;;9.90;99.90;;;;;;6302633;22;20025;-82
2024/01/02 09:52:57;;;;;;;12.18;3.65;;;9.90;99.90;;;;;;6299749;22;20108;-82
2024/01/02 09:55:37;;;;;;;7.82;3.15;;;9.90;99.90;;;;;;6301844;22;20027;-81
2024/01/02 09:58:21;;;;;;;8.48;2.35;;;10.00;99.90;;;;;;6300942;22;20011;-82
2024/01/02 10:01:08;;;;;;;9.05;2.47;;;10.00;99.90;;;;;;6275135;22;20046;-83
2024/01/02 10:03:36;;;;;;;13.32;2.80;;;10.00;99.90;;;;;;6299940;22;20023;-83
2024/01/02 10:06:59;;;;;;;11.70;2.63;;;10.10;99.90;;;;;;6298271;22;20023;-78
2024/01/02 10:09:44;;;;;;;12.57;3.25;;;10.10;99.90;;;;;;6181135;23;20606;-80
2024/01/02 10:12:27;;;;;;;11.68;3.63;;;10.10;99.90;;;;;;6181585;23;20021;-80
2024/01/02 10:14:58;;;;;;;;;;;10.10;99.90;;;;;;6280477;22;20019;-79
2024/01/02 10:17:24;;;;;;;13.00;2.85;;;10.10;99.90;;;;;;6299842;22;19946;-79
2024/01/02 10:20:11;;;;;;;14.50;3.13;;;10.10;99.90;;;;;;6273940;22;20401;-79
2024/01/02 10:22:49;;;;;;;12.13;3.20;;;10.20;99.90;;;;;;6299372;22;20021;-80
2024/01/02 10:25:18;;;;;;;15.70;4.13;;;10.20;99.90;;;;;;6299958;22;20023;-77
2024/01/02 10:28:09;;;;;;;13.60;3.05;;;10.20;99.90;;;;;;6274851;22;20098;-80
2024/01/02 10:30:49;;;;;;;21.38;4.60;;;10.30;99.90;;;;;;6274108;22;20830;-81
2024/01/02 10:33:25;;;;;;;14.82;3.08;;;10.30;99.90;;;;;;6297814;22;20026;-80
2024/01/02 10:35:59;;;;;;;19.50;3.78;;;10.30;99.90;;;;;;6299417;22;20025;-79
2024/01/02 10:39:08;;;;;;;24.15;3.90;;;10.30;99.90;;;;;;6298837;22;20126;-80
2024/01/02 10:41:50;;;;;;;13.57;3.15;;;10.30;99.90;;;;;;6299312;22;20019;-82
2024/01/02 10:44:42;;;;;;;19.27;3.05;;;10.40;99.90;;;;;;6299697;22;20059;-80
2024/01/02 10:47:41;;;;;;;22.38;4.13;;;10.40;99.90;;;;;;6293738;22;20026;-78
2024/01/02 10:50:14;;;;;;;23.15;4.18;;;10.40;99.90;;;;;;6299220;22;20435;-80
2024/01/02 10:52:58;;;;;;;18.15;3.45;;;10.40;99.90;;;;;;6299689;22;20048;-77
2024/01/02 10:55:38;;;;;;;20.90;4.13;;;10.40;99.90;;;;;;6301581;22;20015;-78
2024/01/02 10:58:28;;;;;;;18.50;3.90;;;10.40;99.90;;;;;;6299860;22;20278;-78
2024/01/02 11:01:09;;;;;;;18.75;3.65;;;10.50;99.90;;;;;;6299787;22;20756;-77
2024/01/02 11:04:01;;;;;;;13.65;3.55;;;10.60;99.90;;;;;;6299280;22;20129;-79
2024/01/02 11:06:40;;;;;;;14.02;3.35;;;10.70;99.90;;;;;;6300860;22;20045;-83
2024/01/02 11:09:26;;;;;;;22.15;4.15;;;10.70;99.90;;;;;;6301928;22;20082;-83
2024/01/02 11:11:54;;;;;;;21.60;4.57;;;10.80;99.90;;;;;;6301501;22;20015;-81
2024/01/02 11:14:21;;;;;;;24.83;4.03;;;10.80;99.90;;;;;;6301904;22;20435;-80
2024/01/02 11:16:51;;;;;;;17.35;4.18;;;10.80;99.90;;;;;;6301693;22;20015;-82
2024/01/02 11:19:23;;;;;;;29.50;5.10;;;10.90;99.90;;;;;;6302142;22;20453;-81
2024/01/02 11:22:04;;;;;;;23.23;4.60;;;11.00;99.90;;;;;;6301533;22;20015;-82
2024/01/02 11:24:31;;;;;;;25.52;4.38;;;10.90;99.90;;;;;;6302048;22;20082;-82
2024/01/02 11:27:03;;;;;;;31.83;4.50;;;10.90;99.90;;;;;;6301412;22;20015;-83
2024/01/02 11:29:35;;;;;;;33.00;5.38;;;11.00;99.90;;;;;;6275865;22;20684;-84
2024/01/02 11:32:07;;;;;;;22.02;4.68;;;10.90;99.90;;;;;;6277080;22;20443;-85
2024/01/02 11:34:36;;;;;;;;;;;10.90;99.90;;;;;;6302646;22;20015;-83
2024/01/02 11:37:23;;;;;;;25.90;5.18;;;10.90;99.90;;;;;;6302567;22;19968;-85
2024/01/02 11:40:21;;;;;;;21.25;4.78;;;10.80;99.90;;;;;;6302074;22;20354;-84
2024/01/02 11:43:12;;;;;;;19.95;4.00;;;10.70;99.90;;;;;;6302083;22;20011;-85
2024/01/02 11:45:38;;;;;;;24.30;5.00;;;10.70;99.90;;;;;;6276081;22;20094;-84
2024/01/02 11:48:27;;;;;;;21.48;5.22;;;10.80;99.90;;;;;;6276244;22;20094;-84
2024/01/02 11:50:57;;;;;;;25.23;4.45;;;10.70;99.90;;;;;;6287025;22;20343;-84
2024/01/02 11:53:46;;;;;;;17.25;4.10;;;10.70;99.90;;;;;;6301881;22;20014;-84
2024/01/02 11:56:13;;;;;;;22.27;5.22;;;10.70;99.90;;;;;;6301568;22;20054;-84
2024/01/02 11:58:57;;;;;;;27.35;4.72;;;10.70;99.90;;;;;;6301151;22;20468;-84
2024/01/02 12:01:48;;;;;;;19.10;4.22;;;10.70;99.90;;;;;;6300803;22;20011;-83
2024/01/02 12:04:48;;;;;;;20.20;4.85;;;10.70;99.90;;;;;;6301043;22;20372;-84
2024/01/02 12:07:28;;;;;;;28.85;5.20;;;10.70;99.90;;;;;;6301869;22;20019;-84
2024/01/02 12:09:56;;;;;;;22.33;5.35;;;10.70;99.90;;;;;;6301679;22;20465;-84
2024/01/02 12:13:02;;;;;;;18.02;5.07;;;10.70;99.90;;;;;;6301707;22;20442;-82
2024/01/02 12:15:51;;;;;;;25.23;5.40;;;10.70;99.90;;;;;;6299234;22;20344;-88
2024/01/02 12:18:21;;;;;;;27.95;5.78;;;10.70;99.90;;;;;;6302538;22;20011;-86
2024/01/02 12:21:01;;;;;;;21.75;5.07;;;10.70;99.90;;;;;;6301067;22;20023;-84
2024/01/02 12:23:28;;;;;;;21.20;5.10;;;10.70;99.90;;;;;;6304170;22;20123;-86
2024/01/02 12:26:01;;;;;;;21.52;5.47;;;10.70;99.90;;;;;;6301634;22;20011;-84
2024/01/02 12:28:31;;;;;;;25.55;6.18;;;10.70;99.90;;;;;;6302406;22;20012;-87
2024/01/02 12:31:14;;;;;;;23.45;5.53;;;10.70;99.90;;;;;;6302119;22;20027;-86
2024/01/02 12:33:50;;;;;;;26.45;4.85;;;10.70;99.90;;;;;;6302548;22;20082;-85
2024/01/02 12:36:24;;;;;;;23.67;5.15;;;10.60;99.90;;;;;;6276453;22;20046;-86
2024/01/02 12:38:57;;;;;;;23.35;4.72;;;10.70;99.90;;;;;;6302187;22;20022;-80
2024/01/02 12:41:28;;;;;;;29.70;5.18;;;10.70;99.90;;;;;;6301811;22;20015;-81
2024/01/02 12:43:59;;;;;;;22.23;4.63;;;10.70;99.90;;;;;;6275986;22;20050;-81
2024/01/02 12:46:36;;;;;;;23.77;6.30;;;10.60;99.90;;;;;;6301242;22;20026;-81
2024/01/02 12:49:09;;;;;;;31.27;5.82;;;10.60;99.90;;;;;;6303843;22;20018;-84
2024/01/02 12:51:41;;;;;;;24.92;5.25;;;10.70;99.90;;;;;;6301002;22;20149;-85
2024/01/02 12:54:09;;;;;;;27.05;5.72;;;10.70;99.90;;;;;;6302891;22;20011;-82
2024/01/02 12:56:39;;;;;;;21.60;5.20;;;10.70;99.90;;;;;;6300601;22;20026;-83
2024/01/02 12:59:06;;;;;;;23.25;6.65;;;10.60;99.90;;;;;;6300760;22;20019;-84
2024/01/02 13:01:32;;;;;;;34.92;7.38;;;10.70;99.90;;;;;;6301647;22;20458;-83